createdAt,value
2023-01-02T00:01:12.737Z,14.20
2023-01-02T00:03:40.675Z,14.20
2023-01-02T00:06:08.834Z,14.10
2023-01-02T00:08:36.648Z,14.20
2023-01-02T00:11:04.505Z,14.10
2023-01-02T00:13:32.332Z,14.00
2023-01-02T00:16:00.191Z,14.00
2023-01-02T00:18:29.403Z,14.00
2023-01-02T00:20:57.213Z,14.10
2023-01-02T00:23:25.019Z,14.10
2023-01-02T00:25:52.805Z,14.10
2023-01-02T00:28:20.633Z,14.20
2023-01-02T00:30:48.465Z,14.20
2023-01-02T00:33:16.675Z,14.10
2023-01-02T00:35:46.013Z,14.00
2023-01-02T00:38:13.870Z,14.10
2023-01-02T00:40:42.588Z,14.10
2023-01-02T00:43:10.462Z,14.10
2023-01-02T00:45:38.235Z,14.10
2023-01-02T00:48:06.112Z,14.10
2023-01-02T00:50:33.887Z,14.10
2023-01-02T00:53:03.007Z,14.10
2023-01-02T00:55:30.795Z,14.20
2023-01-02T00:57:58.616Z,14.20
2023-01-02T01:00:26.488Z,14.30
2023-01-02T01:02:57.454Z,14.40
2023-01-02T01:05:25.666Z,14.40
2023-01-02T01:07:54.910Z,14.40
2023-01-02T01:10:24.559Z,14.30
2023-01-02T01:12:52.495Z,14.40
2023-01-02T01:15:20.508Z,14.40
2023-01-02T01:17:48.345Z,14.40
2023-01-02T01:20:16.187Z,14.40
2023-01-02T01:22:44.061Z,14.50
2023-01-02T01:25:12.234Z,14.40
2023-01-02T01:27:41.395Z,14.40
2023-01-02T01:30:10.037Z,14.50
2023-01-02T01:32:37.886Z,14.50
2023-01-02T01:35:06.495Z,14.50
2023-01-02T01:37:34.293Z,14.50
2023-01-02T01:40:02.129Z,14.40
2023-01-02T01:42:34.004Z,14.40
2023-01-02T01:45:03.494Z,14.40
2023-01-02T01:47:39.651Z,14.40
2023-01-02T01:50:11.460Z,14.40
2023-01-02T01:52:44.883Z,14.50
2023-01-02T01:55:17.069Z,14.50
2023-01-02T01:57:47.504Z,14.60
2023-01-02T02:00:17.517Z,14.50
2023-01-02T02:02:48.947Z,14.50
2023-01-02T02:05:20.481Z,14.50
2023-01-02T02:07:55.700Z,14.20
2023-01-02T02:10:23.499Z,14.30
2023-01-02T02:12:51.354Z,14.30
2023-01-02T02:15:27.868Z,14.30
2023-01-02T02:18:06.018Z,14.40
2023-01-02T02:20:40.358Z,14.40
2023-01-02T02:23:48.465Z,14.30
2023-01-02T02:26:42.921Z,14.30
2023-01-02T02:29:59.163Z,14.40
2023-01-02T02:32:38.607Z,14.30
2023-01-02T02:35:15.274Z,14.20
2023-01-02T02:37:51.578Z,14.30
2023-01-02T02:40:26.761Z,14.30
2023-01-02T02:43:08.052Z,14.30
2023-01-02T02:45:46.220Z,14.30
2023-01-02T02:48:21.756Z,14.30
2023-01-02T02:50:53.687Z,14.00
2023-01-02T02:53:24.967Z,14.10
2023-01-02T02:55:55.096Z,14.10
2023-01-02T02:58:25.006Z,14.10
2023-01-02T03:01:02.997Z,14.20
2023-01-02T03:03:32.280Z,14.20
2023-01-02T03:06:25.600Z,14.20
2023-01-02T03:09:06.137Z,14.20
2023-01-02T03:11:56.181Z,14.20
2023-01-02T03:14:32.250Z,14.20
2023-01-02T03:17:03.567Z,14.20
2023-01-02T03:19:38.948Z,14.20
2023-01-02T03:22:11.196Z,14.20
2023-01-02T03:24:40.772Z,14.20
2023-01-02T03:27:11.536Z,14.20
2023-01-02T03:29:43.530Z,14.20
2023-01-02T03:32:17.935Z,14.20
2023-01-02T03:34:49.339Z,14.20
2023-01-02T03:37:22.596Z,14.20
2023-01-02T03:39:54.446Z,14.20
2023-01-02T03:42:26.491Z,14.10
2023-01-02T03:45:03.487Z,14.20
2023-01-02T03:47:37.259Z,14.20
2023-01-02T03:50:11.828Z,14.10
2023-01-02T03:52:39.661Z,14.10
2023-01-02T03:55:08.852Z,14.00
2023-01-02T03:57:55.194Z,14.00
2023-01-02T04:00:28.670Z,14.00
2023-01-02T04:03:03.727Z,14.10
2023-01-02T04:05:38.817Z,14.10
2023-01-02T04:08:11.400Z,14.00
2023-01-02T04:10:40.209Z,14.00
2023-01-02T04:13:13.989Z,14.00
2023-01-02T04:15:44.311Z,13.90
2023-01-02T04:18:16.865Z,13.60
2023-01-02T04:20:50.348Z,13.50
2023-01-02T04:23:21.757Z,13.30
2023-01-02T04:25:54.126Z,13.40
2023-01-02T04:28:27.348Z,13.30
2023-01-02T04:31:01.128Z,13.20
2023-01-02T04:33:30.360Z,13.10
2023-01-02T04:35:59.516Z,12.80
2023-01-02T04:38:27.277Z,12.60
2023-01-02T04:40:55.206Z,12.50
2023-01-02T04:43:22.973Z,12.50
2023-01-02T04:45:52.234Z,12.50
2023-01-02T04:48:20.103Z,12.60
2023-01-02T04:50:48.778Z,12.50
2023-01-02T04:53:17.993Z,12.40
2023-01-02T04:55:45.863Z,12.40
2023-01-02T04:58:14.262Z,12.40
2023-01-02T05:00:42.028Z,12.20
2023-01-02T05:03:09.857Z,12.30
2023-01-02T05:05:37.629Z,12.40
2023-01-02T05:08:10.589Z,12.30
2023-01-02T05:10:43.266Z,12.40
2023-01-02T05:13:11.062Z,12.30
2023-01-02T05:15:38.861Z,12.30
2023-01-02T05:18:06.735Z,12.30
2023-01-02T05:20:34.580Z,12.40
2023-01-02T05:23:19.888Z,12.30
2023-01-02T05:25:49.128Z,12.40
2023-01-02T05:28:16.929Z,12.30
2023-01-02T05:30:44.743Z,12.30
2023-01-02T05:33:12.530Z,12.10
2023-01-02T05:35:40.313Z,12.10
2023-01-02T05:38:08.316Z,12.00
2023-01-02T05:40:36.179Z,12.00
2023-01-02T05:43:05.365Z,12.10
2023-01-02T05:45:33.215Z,12.00
2023-01-02T05:48:01.063Z,11.90
2023-01-02T05:50:28.856Z,12.10
2023-01-02T05:52:56.831Z,12.00
2023-01-02T05:55:24.634Z,12.10
2023-01-02T05:57:55.590Z,12.00
2023-01-02T06:00:24.825Z,11.90
2023-01-02T06:02:52.764Z,12.00
2023-01-02T06:05:20.682Z,12.10
2023-01-02T06:07:48.531Z,12.10
2023-01-02T06:10:16.446Z,12.10
2023-01-02T06:12:44.260Z,12.10
2023-01-02T06:15:12.547Z,12.00
2023-01-02T06:17:41.709Z,12.00
2023-01-02T06:20:10.791Z,12.00
2023-01-02T06:22:38.621Z,12.00
2023-01-02T06:25:07.362Z,12.00
2023-01-02T06:27:35.169Z,12.00
2023-01-02T06:30:03.105Z,12.00
2023-01-02T06:32:30.967Z,12.00
2023-01-02T06:35:00.171Z,12.00
2023-01-02T06:37:28.029Z,12.00
2023-01-02T06:39:55.873Z,11.90
2023-01-02T06:42:23.685Z,12.00
2023-01-02T06:44:51.492Z,11.90
2023-01-02T06:47:19.285Z,11.90
2023-01-02T06:49:47.085Z,11.80
2023-01-02T06:52:16.203Z,11.80
2023-01-02T06:54:44.039Z,11.70
2023-01-02T06:57:12.018Z,11.80
2023-01-02T06:59:39.885Z,11.70
2023-01-02T07:02:07.936Z,11.80
2023-01-02T07:04:35.758Z,11.80
2023-01-02T07:07:03.877Z,11.80
2023-01-02T07:09:33.280Z,11.70
2023-01-02T07:12:01.122Z,11.80
2023-01-02T07:14:28.964Z,11.90
2023-01-02T07:16:56.896Z,11.90
2023-01-02T07:19:24.796Z,11.90
2023-01-02T07:21:52.615Z,11.90
2023-01-02T07:24:20.421Z,11.90
2023-01-02T07:26:49.526Z,11.90
2023-01-02T07:29:17.334Z,11.90
2023-01-02T07:31:45.211Z,11.80
2023-01-02T07:34:13.007Z,11.80
2023-01-02T07:36:40.793Z,11.80
2023-01-02T07:39:08.738Z,11.80
2023-01-02T07:41:36.723Z,11.80
2023-01-02T07:44:06.199Z,11.80
2023-01-02T07:46:34.041Z,11.80
2023-01-02T07:49:01.873Z,11.90
2023-01-02T07:51:29.748Z,11.90
2023-01-02T07:53:57.704Z,11.70
2023-01-02T07:56:25.919Z,11.80
2023-01-02T07:58:54.099Z,11.90
2023-01-02T08:01:23.674Z,11.90
2023-01-02T08:03:51.799Z,11.90
2023-01-02T08:06:20.572Z,11.80
2023-01-02T08:08:48.756Z,11.80
2023-01-02T08:11:18.590Z,11.60
2023-01-02T08:13:46.681Z,11.80
2023-01-02T08:16:16.367Z,11.70
2023-01-02T08:18:46.619Z,11.70
2023-01-02T08:21:14.964Z,11.70
2023-01-02T08:23:42.850Z,11.80
2023-01-02T08:26:11.860Z,11.80
2023-01-02T08:28:41.096Z,11.80
2023-01-02T08:31:11.235Z,11.80
2023-01-02T08:33:39.382Z,11.90
2023-01-02T08:36:09.918Z,12.00
2023-01-02T08:38:37.925Z,12.00
2023-01-02T08:41:07.073Z,11.80
2023-01-02T08:43:36.212Z,11.90
2023-01-02T08:46:05.785Z,11.90
2023-01-02T08:48:34.385Z,11.90
2023-01-02T08:51:02.297Z,11.90
2023-01-02T08:53:31.622Z,11.90
2023-01-02T08:56:17.813Z,11.90
2023-01-02T08:58:52.046Z,11.80
2023-01-02T09:01:20.579Z,11.80
2023-01-02T09:03:48.422Z,11.80
2023-01-02T09:06:21.474Z,11.80
2023-01-02T09:08:53.165Z,11.80
2023-01-02T09:11:23.243Z,11.90
2023-01-02T09:13:51.111Z,12.00
2023-01-02T09:16:19.255Z,11.90
2023-01-02T09:18:47.095Z,11.90
2023-01-02T09:21:15.004Z,11.90
2023-01-02T09:23:42.882Z,12.10
2023-01-02T09:26:13.519Z,12.00
2023-01-02T09:28:41.677Z,12.00
2023-01-02T09:31:12.384Z,12.00
2023-01-02T09:33:41.521Z,12.10
2023-01-02T09:36:11.583Z,12.10
2023-01-02T09:38:39.823Z,12.30
2023-01-02T09:41:14.499Z,12.20
2023-01-02T09:43:47.424Z,12.20
2023-01-02T09:46:22.085Z,12.30
2023-01-02T09:48:49.913Z,12.20
2023-01-02T09:51:17.678Z,12.30
2023-01-02T09:53:45.860Z,12.20
2023-01-02T09:56:22.533Z,12.20
2023-01-02T09:58:59.768Z,12.20
2023-01-02T10:01:34.812Z,12.20
2023-01-02T10:04:13.140Z,12.30
2023-01-02T10:06:47.686Z,12.20
2023-01-02T10:09:22.880Z,12.20
2023-01-02T10:12:01.253Z,12.20
2023-01-02T10:14:44.666Z,12.20
2023-01-02T10:17:15.248Z,12.20
2023-01-02T10:19:49.258Z,12.20
2023-01-02T10:22:21.046Z,12.30
2023-01-02T10:24:55.694Z,12.40
2023-01-02T10:27:29.340Z,12.40
2023-01-02T10:30:07.043Z,12.40
2023-01-02T10:32:36.269Z,12.40
2023-01-02T10:35:15.593Z,12.40
2023-01-02T10:37:43.392Z,12.30
2023-01-02T10:40:11.600Z,12.30
2023-01-02T10:42:39.475Z,12.40
2023-01-02T10:45:15.140Z,12.50
2023-01-02T10:47:42.978Z,12.60
2023-01-02T10:50:19.347Z,12.60
2023-01-02T10:52:50.960Z,12.60
2023-01-02T10:55:32.833Z,12.80
2023-01-02T10:58:05.551Z,12.80
2023-01-02T11:00:37.118Z,12.80
2023-01-02T11:03:14.974Z,12.90
2023-01-02T11:05:47.221Z,12.90
2023-01-02T11:08:18.009Z,12.90
2023-01-02T11:10:46.160Z,13.00
2023-01-02T11:13:15.836Z,13.00
2023-01-02T11:15:51.178Z,13.00
2023-01-02T11:18:24.533Z,12.90
2023-01-02T11:20:55.686Z,13.00
2023-01-02T11:23:26.497Z,13.00
2023-01-02T11:25:55.367Z,13.10
2023-01-02T11:28:27.911Z,13.10
2023-01-02T11:31:04.462Z,13.10
2023-01-02T11:33:34.564Z,13.00
2023-01-02T11:36:15.465Z,13.00
2023-01-02T11:38:45.666Z,12.90
2023-01-02T11:41:48.995Z,13.00
2023-01-02T11:44:21.104Z,12.90
2023-01-02T11:46:51.687Z,12.90
2023-01-02T11:49:22.914Z,12.90
2023-01-02T11:52:01.265Z,12.90
2023-01-02T11:54:38.098Z,12.90
2023-01-02T11:57:18.429Z,12.80
2023-01-02T11:59:49.502Z,12.80
2023-01-02T12:02:24.561Z,12.80
2023-01-02T12:04:52.439Z,12.70
2023-01-02T12:07:36.693Z,12.60
2023-01-02T12:10:17.353Z,12.50
2023-01-02T12:12:57.141Z,12.30
2023-01-02T12:15:45.270Z,12.30
2023-01-02T12:18:27.052Z,12.00
2023-01-02T12:21:05.527Z,12.00
2023-01-02T12:23:54.767Z,12.00
2023-01-02T12:26:29.992Z,12.00
2023-01-02T12:29:46.815Z,12.10
2023-01-02T12:32:55.891Z,12.10
2023-01-02T12:35:41.235Z,12.10
2023-01-02T12:38:09.999Z,12.20
2023-01-02T12:40:56.171Z,12.20
2023-01-02T12:43:47.270Z,12.30
2023-01-02T12:46:29.123Z,12.20
2023-01-02T12:49:15.547Z,12.10
2023-01-02T12:51:53.742Z,12.20
2023-01-02T12:54:51.556Z,12.20
2023-01-02T12:57:29.161Z,12.20
2023-01-02T13:00:22.391Z,12.20
2023-01-02T13:03:05.131Z,12.10
2023-01-02T13:05:39.315Z,12.20
2023-01-02T13:08:17.344Z,12.20
2023-01-02T13:10:46.676Z,12.00
2023-01-02T13:13:15.464Z,12.00
2023-01-02T13:15:47.009Z,12.00
2023-01-02T13:18:21.607Z,12.10
2023-01-02T13:20:55.820Z,12.10
2023-01-02T13:23:35.240Z,12.10
2023-01-02T13:26:06.645Z,12.10
2023-01-02T13:28:38.669Z,12.20
2023-01-02T13:33:56.543Z,12.10
2023-01-02T13:36:28.294Z,12.00
2023-01-02T13:39:00.758Z,12.10
2023-01-02T13:41:30.744Z,12.10
2023-01-02T13:44:02.600Z,11.90
2023-01-02T13:47:03.588Z,11.90
2023-01-02T13:49:22.207Z,11.90
2023-01-02T13:51:50.055Z,11.90
2023-01-02T13:54:21.135Z,12.00
2023-01-02T13:57:18.447Z,12.00
2023-01-02T13:59:58.578Z,11.80
2023-01-02T14:02:26.748Z,11.90
2023-01-02T14:04:54.814Z,11.90
2023-01-02T14:07:48.802Z,11.90
2023-01-02T14:10:44.480Z,11.90
2023-01-02T14:13:36.598Z,11.90
2023-01-02T14:16:43.054Z,11.90
2023-01-02T14:19:23.159Z,11.90
2023-01-02T14:22:04.175Z,11.90
2023-01-02T14:24:35.818Z,12.00
2023-01-02T14:27:06.524Z,11.90
2023-01-02T14:29:46.016Z,11.90
2023-01-02T14:32:22.614Z,12.00
2023-01-02T14:34:53.556Z,12.00
2023-01-02T14:37:32.481Z,11.70
2023-01-02T14:40:11.790Z,12.10
2023-01-02T14:43:00.766Z,12.20
2023-01-02T14:45:31.222Z,12.10
2023-01-02T14:48:03.596Z,12.10
2023-01-02T14:50:35.414Z,12.10
2023-01-02T14:53:07.196Z,12.10
2023-01-02T14:55:42.165Z,12.10
2023-01-02T14:58:21.021Z,12.20
2023-01-02T15:00:50.001Z,11.90
2023-01-02T15:03:28.445Z,12.00
2023-01-02T15:06:00.737Z,12.00
2023-01-02T15:08:38.512Z,11.90
2023-01-02T15:11:36.314Z,11.90
2023-01-02T15:14:07.125Z,11.80
2023-01-02T15:16:42.835Z,11.80
2023-01-02T15:19:18.323Z,11.70
2023-01-02T15:21:47.288Z,11.80
2023-01-02T15:24:23.785Z,11.70
2023-01-02T15:26:52.430Z,11.70
2023-01-02T15:29:24.676Z,11.70
2023-01-02T15:31:54.478Z,11.60
2023-01-02T15:34:29.791Z,11.60
2023-01-02T15:36:59.886Z,11.60
2023-01-02T15:39:33.869Z,11.70
2023-01-02T15:42:08.110Z,11.70
2023-01-02T15:44:59.194Z,11.60
2023-01-02T15:47:28.582Z,11.70
2023-01-02T15:49:58.397Z,11.40
2023-01-02T15:52:30.890Z,11.40
2023-01-02T15:54:59.559Z,11.50
2023-01-02T15:57:29.729Z,11.50
2023-01-02T15:59:59.333Z,11.50
2023-01-02T16:02:37.209Z,11.50
2023-01-02T16:05:13.942Z,11.50
2023-01-02T16:07:42.806Z,11.60
2023-01-02T16:10:19.087Z,11.50
2023-01-02T16:12:52.071Z,11.50
2023-01-02T16:15:25.486Z,11.50
2023-01-02T16:17:56.254Z,11.50
2023-01-02T16:20:27.193Z,11.50
2023-01-02T16:22:58.443Z,11.40
2023-01-02T16:25:28.853Z,11.40
2023-01-02T16:28:01.205Z,11.20
2023-01-02T16:30:38.070Z,11.30
2023-01-02T16:33:21.907Z,11.30
2023-01-02T16:35:59.927Z,11.20
2023-01-02T16:38:29.709Z,11.20
2023-01-02T16:41:04.558Z,11.10
2023-01-02T16:43:42.908Z,11.10
2023-01-02T16:46:16.079Z,11.10
2023-01-02T16:48:45.139Z,11.20
2023-01-02T16:51:14.820Z,11.10
2023-01-02T16:53:45.584Z,11.10
2023-01-02T16:56:14.471Z,11.10
2023-01-02T16:58:42.360Z,11.10
2023-01-02T17:01:14.572Z,11.10
2023-01-02T17:03:43.160Z,11.10
2023-01-02T17:06:13.685Z,11.10
2023-01-02T17:08:41.685Z,11.10
2023-01-02T17:11:13.614Z,10.90
2023-01-02T17:13:41.437Z,11.00
2023-01-02T17:16:09.327Z,10.90
2023-01-02T17:18:38.532Z,10.90
2023-01-02T17:21:06.795Z,11.00
2023-01-02T17:23:34.893Z,10.90
2023-01-02T17:26:02.809Z,10.90
2023-01-02T17:28:30.816Z,11.00
2023-01-02T17:30:58.648Z,11.00
2023-01-02T17:33:26.570Z,10.90
2023-01-02T17:35:56.627Z,10.90
2023-01-02T17:38:24.383Z,11.00
2023-01-02T17:40:57.699Z,10.80
2023-01-02T17:43:26.427Z,10.80
2023-01-02T17:45:54.543Z,10.80
2023-01-02T17:48:24.884Z,10.80
2023-01-02T17:50:54.794Z,10.80
2023-01-02T17:53:22.778Z,10.90
2023-01-02T17:56:20.369Z,10.80
2023-01-02T17:58:42.548Z,10.70
2023-01-02T18:01:15.855Z,10.80
2023-01-02T18:03:43.883Z,10.80
2023-01-02T18:06:13.174Z,10.70
2023-01-02T18:08:41.035Z,10.70
2023-01-02T18:11:09.726Z,10.70
2023-01-02T18:13:47.418Z,10.70
2023-01-02T18:16:18.939Z,10.60
2023-01-02T18:18:47.044Z,10.60
2023-01-02T18:21:19.256Z,10.50
2023-01-02T18:23:50.809Z,10.50
2023-01-02T18:26:20.049Z,10.60
2023-01-02T18:28:51.836Z,10.60
2023-01-02T18:31:20.716Z,10.60
2023-01-02T18:33:48.836Z,10.60
2023-01-02T18:36:21.606Z,10.60
2023-01-02T18:38:51.066Z,10.60
2023-01-02T18:41:23.232Z,10.60
2023-01-02T18:43:54.082Z,10.50
2023-01-02T18:46:25.055Z,10.60
2023-01-02T18:49:17.955Z,10.50
2023-01-02T18:51:47.321Z,10.50
2023-01-02T18:54:23.530Z,10.50
2023-01-02T18:56:51.333Z,10.50
2023-01-02T18:59:30.116Z,10.50
2023-01-02T19:02:02.248Z,10.50
2023-01-02T19:04:35.561Z,10.50
2023-01-02T19:07:22.666Z,10.50
2023-01-02T19:09:50.633Z,10.50
2023-01-02T19:12:44.627Z,10.40
2023-01-02T19:15:33.371Z,10.30
2023-01-02T19:18:15.894Z,10.40
2023-01-02T19:20:45.668Z,10.30
2023-01-02T19:23:25.758Z,10.30
2023-01-02T19:25:54.774Z,10.30
2023-01-02T19:28:25.425Z,10.30
2023-01-02T19:30:53.293Z,10.30
2023-01-02T19:33:43.249Z,10.20
2023-01-02T19:36:17.239Z,10.20
2023-01-02T19:38:48.923Z,10.10
2023-01-02T19:41:36.811Z,10.10
2023-01-02T19:44:04.665Z,10.10
2023-01-02T19:46:32.489Z,10.00
2023-01-02T19:49:00.293Z,10.00
2023-01-02T19:51:32.003Z,9.90
2023-01-02T19:54:04.193Z,9.90
2023-01-02T19:56:32.692Z,9.80
2023-01-02T19:59:00.679Z,9.70
2023-01-02T20:01:28.677Z,9.90
2023-01-02T20:03:57.682Z,9.70
2023-01-02T20:06:26.035Z,9.70
2023-01-02T20:08:53.835Z,9.70
2023-01-02T20:11:40.537Z,9.60
2023-01-02T20:14:08.509Z,9.60
2023-01-02T20:16:36.367Z,9.60
2023-01-02T20:19:04.624Z,9.60
2023-01-02T20:21:32.424Z,9.60
2023-01-02T20:24:01.226Z,9.60
2023-01-02T20:26:30.422Z,9.60
2023-01-02T20:28:58.421Z,9.60
2023-01-02T20:31:26.370Z,9.50
2023-01-02T20:33:54.228Z,9.40
2023-01-02T20:36:22.119Z,9.40
2023-01-02T20:38:49.926Z,9.40
2023-01-02T20:41:17.773Z,9.30
2023-01-02T20:43:46.965Z,9.50
2023-01-02T20:46:14.832Z,9.40
2023-01-02T20:48:42.654Z,9.50
2023-01-02T20:51:10.504Z,9.50
2023-01-02T20:53:38.297Z,9.50
2023-01-02T20:56:06.774Z,9.30
2023-01-02T20:58:34.599Z,9.30
2023-01-02T21:01:03.785Z,9.10
2023-01-02T21:03:31.680Z,9.10
2023-01-02T21:05:59.669Z,9.10
2023-01-02T21:08:29.282Z,9.10
2023-01-02T21:10:57.232Z,9.30
2023-01-02T21:13:25.091Z,9.10
2023-01-02T21:15:52.986Z,9.10
2023-01-02T21:18:23.723Z,9.10
2023-01-02T21:20:59.036Z,9.00
2023-01-02T21:23:28.634Z,8.90
2023-01-02T21:25:57.238Z,8.90
2023-01-02T21:28:25.936Z,8.90
2023-01-02T21:30:54.497Z,8.90
2023-01-02T21:33:25.640Z,8.90
2023-01-02T21:35:55.148Z,8.80
2023-01-02T21:38:24.084Z,8.80
2023-01-02T21:40:52.920Z,8.70
2023-01-02T21:43:21.163Z,8.60
2023-01-02T21:45:49.827Z,8.60
2023-01-02T21:48:17.735Z,8.50
2023-01-02T21:50:46.904Z,8.50
2023-01-02T21:53:16.788Z,8.50
2023-01-02T21:55:44.706Z,8.50
2023-01-02T21:58:13.825Z,8.40
2023-01-02T22:00:42.761Z,8.30
2023-01-02T22:03:10.806Z,8.40
2023-01-02T22:05:38.763Z,8.40
2023-01-02T22:08:08.067Z,8.40
2023-01-02T22:10:35.979Z,8.30
2023-01-02T22:13:03.814Z,8.40
2023-01-02T22:15:31.672Z,8.30
2023-01-02T22:17:59.502Z,8.30
2023-01-02T22:20:27.449Z,8.30
2023-01-02T22:22:55.265Z,8.30
2023-01-02T22:25:24.545Z,8.20
2023-01-02T22:27:52.361Z,8.30
2023-01-02T22:30:25.763Z,8.30
2023-01-02T22:32:55.829Z,8.40
2023-01-02T22:35:23.705Z,8.50
2023-01-02T22:37:51.506Z,8.50
2023-01-02T22:40:20.246Z,8.50
2023-01-02T22:43:04.876Z,8.40
2023-01-02T22:45:37.471Z,8.30
2023-01-02T22:48:09.036Z,8.30
2023-01-02T22:50:46.305Z,8.20
2023-01-02T22:53:20.401Z,8.20
2023-01-02T22:55:49.028Z,8.20
2023-01-02T22:58:18.864Z,8.20
2023-01-02T23:00:48.858Z,8.20
2023-01-02T23:03:17.790Z,8.10
2023-01-02T23:05:45.818Z,8.20
2023-01-02T23:08:13.767Z,9.00
2023-01-02T23:10:41.657Z,8.20
2023-01-02T23:13:09.481Z,8.20
2023-01-02T23:15:59.999Z,8.20
2023-01-02T23:18:45.528Z,8.10
2023-01-02T23:21:13.699Z,8.20
2023-01-02T23:23:41.526Z,8.10
2023-01-02T23:26:09.600Z,8.10
2023-01-02T23:29:05.872Z,8.10
2023-01-02T23:31:26.619Z,8.00
2023-01-02T23:33:54.414Z,8.10
2023-01-02T23:36:22.279Z,8.10
2023-01-02T23:38:50.092Z,8.10
2023-01-02T23:41:18.012Z,8.20
2023-01-02T23:43:45.869Z,8.20
2023-01-02T23:46:13.700Z,8.20
2023-01-02T23:48:42.945Z,8.10
2023-01-02T23:51:10.757Z,8.10
2023-01-02T23:53:38.576Z,8.10
2023-01-02T23:56:18.421Z,8.10
2023-01-02T23:58:46.756Z,8.10
